sensor_id;sensor_type;location;lat;lon;timestamp;temperature;humidity
2389;DHT22;1205;47.984;7.668;2023-11-19T00:01:56;10.20;99.90
2389;DHT22;1205;47.984;7.668;2023-11-19T00:04:22;10.30;99.90
2389;DHT22;1205;47.984;7.668;2023-11-19T00:06:48;10.30;99.90
2389;DHT22;1205;47.984;7.668;2023-11-19T00:09:13;10.30;99.90
2389;DHT22;1205;47.984;7.668;2023-11-19T00:11:42;10.40;99.90
2389;DHT22;1205;47.984;7.668;2023-11-19T00:14:07;10.40;99.90
2389;DHT22;1205;47.984;7.668;2023-11-19T00:16:34;10.50;99.90
2389;DHT22;1205;47.984;7.668;2023-11-19T00:19:00;10.40;99.90
2389;DHT22;1205;47.984;7.668;2023-11-19T00:21:25;10.40;99.90
2389;DHT22;1205;47.984;7.668;2023-11-19T00:23:54;10.40;99.90
2389;DHT22;1205;47.984;7.668;2023-11-19T00:26:19;10.40;99.90
2389;DHT22;1205;47.984;7.668;2023-11-19T00:28:45;10.40;99.90
2389;DHT22;1205;47.984;7.668;2023-11-19T00:31:13;10.50;99.90
2389;DHT22;1205;47.984;7.668;2023-11-19T00:33:38;10.50;99.90
2389;DHT22;1205;47.984;7.668;2023-11-19T00:36:05;10.50;99.90
2389;DHT22;1205;47.984;7.668;2023-11-19T00:38:30;10.50;99.90
2389;DHT22;1205;47.984;7.668;2023-11-19T00:40:56;10.50;99.90
2389;DHT22;1205;47.984;7.668;2023-11-19T00:43:22;10.60;99.90
2389;DHT22;1205;47.984;7.668;2023-11-19T00:45:47;10.60;99.90
2389;DHT22;1205;47.984;7.668;2023-11-19T00:48:16;10.60;99.90
2389;DHT22;1205;47.984;7.668;2023-11-19T00:50:42;10.60;99.90
2389;DHT22;1205;47.984;7.668;2023-11-19T00:53:10;10.60;99.90
2389;DHT22;1205;47.984;7.668;2023-11-19T00:55:36;10.60;99.90
2389;DHT22;1205;47.984;7.668;2023-11-19T00:58:01;10.70;99.90
2389;DHT22;1205;47.984;7.668;2023-11-19T01:00:28;10.70;99.90
2389;DHT22;1205;47.984;7.668;2023-11-19T01:02:54;10.70;99.90
2389;DHT22;1205;47.984;7.668;2023-11-19T01:05:22;10.70;99.90
2389;DHT22;1205;47.984;7.668;2023-11-19T01:07:49;10.70;99.90
2389;DHT22;1205;47.984;7.668;2023-11-19T01:10:14;10.80;99.90
2389;DHT22;1205;47.984;7.668;2023-11-19T01:12:44;10.90;99.90
2389;DHT22;1205;47.984;7.668;2023-11-19T01:15:09;10.90;99.90
2389;DHT22;1205;47.984;7.668;2023-11-19T01:17:39;11.00;99.90
2389;DHT22;1205;47.984;7.668;2023-11-19T01:20:05;11.10;99.90
2389;DHT22;1205;47.984;7.668;2023-11-19T01:22:37;11.10;99.90
2389;DHT22;1205;47.984;7.668;2023-11-19T01:25:03;11.10;99.90
2389;DHT22;1205;47.984;7.668;2023-11-19T01:27:30;11.20;99.90
2389;DHT22;1205;47.984;7.668;2023-11-19T01:29:56;11.20;99.90
2389;DHT22;1205;47.984;7.668;2023-11-19T01:32:22;11.20;99.90
2389;DHT22;1205;47.984;7.668;2023-11-19T01:34:49;11.30;99.90
2389;DHT22;1205;47.984;7.668;2023-11-19T01:37:15;11.30;99.90
2389;DHT22;1205;47.984;7.668;2023-11-19T01:39:43;11.30;99.90
2389;DHT22;1205;47.984;7.668;2023-11-19T01:42:09;11.30;99.90
2389;DHT22;1205;47.984;7.668;2023-11-19T01:44:34;11.30;99.90
2389;DHT22;1205;47.984;7.668;2023-11-19T01:47:00;11.40;99.90
2389;DHT22;1205;47.984;7.668;2023-11-19T01:49:26;11.40;99.90
2389;DHT22;1205;47.984;7.668;2023-11-19T01:51:52;11.40;99.90
2389;DHT22;1205;47.984;7.668;2023-11-19T01:54:18;11.40;99.90
2389;DHT22;1205;47.984;7.668;2023-11-19T01:56:43;11.40;99.90
2389;DHT22;1205;47.984;7.668;2023-11-19T01:59:10;11.40;99.90
2389;DHT22;1205;47.984;7.668;2023-11-19T02:01:36;11.40;99.90
2389;DHT22;1205;47.984;7.668;2023-11-19T02:04:06;11.40;99.90
2389;DHT22;1205;47.984;7.668;2023-11-19T02:06:33;11.40;99.90
2389;DHT22;1205;47.984;7.668;2023-11-19T02:08:59;11.40;99.90
2389;DHT22;1205;47.984;7.668;2023-11-19T02:11:26;11.40;99.90
2389;DHT22;1205;47.984;7.668;2023-11-19T02:13:55;11.40;99.90
2389;DHT22;1205;47.984;7.668;2023-11-19T02:16:21;11.40;99.90
2389;DHT22;1205;47.984;7.668;2023-11-19T02:18:47;11.50;99.90
2389;DHT22;1205;47.984;7.668;2023-11-19T02:21:14;11.40;99.90
2389;DHT22;1205;47.984;7.668;2023-11-19T02:23:40;11.40;99.90
2389;DHT22;1205;47.984;7.668;2023-11-19T02:26:25;11.40;99.90
2389;DHT22;1205;47.984;7.668;2023-11-19T02:28:54;11.40;99.90
2389;DHT22;1205;47.984;7.668;2023-11-19T02:31:19;11.40;99.90
2389;DHT22;1205;47.984;7.668;2023-11-19T02:33:45;11.40;99.90
2389;DHT22;1205;47.984;7.668;2023-11-19T02:36:11;11.30;99.90
2389;DHT22;1205;47.984;7.668;2023-11-19T02:38:36;11.30;99.90
2389;DHT22;1205;47.984;7.668;2023-11-19T02:41:06;11.40;99.90
2389;DHT22;1205;47.984;7.668;2023-11-19T02:43:33;11.40;99.90
2389;DHT22;1205;47.984;7.668;2023-11-19T02:46:03;11.40;99.90
2389;DHT22;1205;47.984;7.668;2023-11-19T02:48:33;11.40;99.90
2389;DHT22;1205;47.984;7.668;2023-11-19T02:51:01;11.40;99.90
2389;DHT22;1205;47.984;7.668;2023-11-19T02:53:29;11.40;99.90
2389;DHT22;1205;47.984;7.668;2023-11-19T02:55:54;11.40;99.90
2389;DHT22;1205;47.984;7.668;2023-11-19T02:58:27;11.30;99.90
2389;DHT22;1205;47.984;7.668;2023-11-19T03:00:54;11.40;99.90
2389;DHT22;1205;47.984;7.668;2023-11-19T03:03:24;11.30;99.90
2389;DHT22;1205;47.984;7.668;2023-11-19T03:05:54;11.30;99.90
2389;DHT22;1205;47.984;7.668;2023-11-19T03:08:20;11.30;99.90
2389;DHT22;1205;47.984;7.668;2023-11-19T03:10:47;11.30;99.90
2389;DHT22;1205;47.984;7.668;2023-11-19T03:13:13;11.30;99.90
2389;DHT22;1205;47.984;7.668;2023-11-19T03:15:44;11.30;99.90
2389;DHT22;1205;47.984;7.668;2023-11-19T03:18:11;11.30;99.90
2389;DHT22;1205;47.984;7.668;2023-11-19T03:20:36;11.30;99.90
2389;DHT22;1205;47.984;7.668;2023-11-19T03:23:02;11.30;99.90
2389;DHT22;1205;47.984;7.668;2023-11-19T03:25:28;11.30;99.90
2389;DHT22;1205;47.984;7.668;2023-11-19T03:28:00;11.40;99.90
2389;DHT22;1205;47.984;7.668;2023-11-19T03:30:27;11.30;99.90
2389;DHT22;1205;47.984;7.668;2023-11-19T03:32:54;11.40;99.90
2389;DHT22;1205;47.984;7.668;2023-11-19T03:35:19;11.30;99.90
2389;DHT22;1205;47.984;7.668;2023-11-19T03:37:45;11.40;99.90
2389;DHT22;1205;47.984;7.668;2023-11-19T03:40:12;11.40;99.90
2389;DHT22;1205;47.984;7.668;2023-11-19T03:42:37;11.40;99.90
2389;DHT22;1205;47.984;7.668;2023-11-19T03:45:06;11.40;99.90
2389;DHT22;1205;47.984;7.668;2023-11-19T03:47:34;11.50;99.90
2389;DHT22;1205;47.984;7.668;2023-11-19T03:49:59;11.50;99.90
2389;DHT22;1205;47.984;7.668;2023-11-19T03:52:25;11.50;99.90
2389;DHT22;1205;47.984;7.668;2023-11-19T03:54:52;11.50;99.90
2389;DHT22;1205;47.984;7.668;2023-11-19T03:57:18;11.50;99.90
2389;DHT22;1205;47.984;7.668;2023-11-19T03:59:44;11.50;99.90
2389;DHT22;1205;47.984;7.668;2023-11-19T04:02:10;11.50;99.90
2389;DHT22;1205;47.984;7.668;2023-11-19T04:04:35;11.60;99.90
2389;DHT22;1205;47.984;7.668;2023-11-19T04:07:01;11.60;99.90
2389;DHT22;1205;47.984;7.668;2023-11-19T04:09:28;11.60;99.90
2389;DHT22;1205;47.984;7.668;2023-11-19T04:11:55;11.60;99.90
2389;DHT22;1205;47.984;7.668;2023-11-19T04:14:20;11.60;99.90
2389;DHT22;1205;47.984;7.668;2023-11-19T04:16:46;11.60;99.90
2389;DHT22;1205;47.984;7.668;2023-11-19T04:19:12;11.60;99.90
2389;DHT22;1205;47.984;7.668;2023-11-19T04:21:40;11.60;99.90
2389;DHT22;1205;47.984;7.668;2023-11-19T04:24:07;11.60;99.90
2389;DHT22;1205;47.984;7.668;2023-11-19T04:26:33;11.60;99.90
2389;DHT22;1205;47.984;7.668;2023-11-19T04:28:59;11.60;99.90
2389;DHT22;1205;47.984;7.668;2023-11-19T04:31:29;11.70;99.90
2389;DHT22;1205;47.984;7.668;2023-11-19T04:33:56;11.70;99.90
2389;DHT22;1205;47.984;7.668;2023-11-19T04:36:22;11.70;99.90
2389;DHT22;1205;47.984;7.668;2023-11-19T04:38:49;11.70;99.90
2389;DHT22;1205;47.984;7.668;2023-11-19T04:41:15;11.70;99.90
2389;DHT22;1205;47.984;7.668;2023-11-19T04:43:40;11.80;99.90
2389;DHT22;1205;47.984;7.668;2023-11-19T04:46:06;11.70;99.90
2389;DHT22;1205;47.984;7.668;2023-11-19T04:48:32;11.80;99.90
2389;DHT22;1205;47.984;7.668;2023-11-19T04:50:57;11.80;99.90
2389;DHT22;1205;47.984;7.668;2023-11-19T04:53:23;11.80;99.90
2389;DHT22;1205;47.984;7.668;2023-11-19T04:55:48;11.80;99.90
2389;DHT22;1205;47.984;7.668;2023-11-19T04:58:14;11.90;99.90
2389;DHT22;1205;47.984;7.668;2023-11-19T05:00:39;11.90;99.90
2389;DHT22;1205;47.984;7.668;2023-11-19T05:03:05;11.90;99.90
2389;DHT22;1205;47.984;7.668;2023-11-19T05:05:32;11.90;99.90
2389;DHT22;1205;47.984;7.668;2023-11-19T05:07:57;12.00;99.90
2389;DHT22;1205;47.984;7.668;2023-11-19T05:10:23;11.90;99.90
2389;DHT22;1205;47.984;7.668;2023-11-19T05:12:50;12.00;99.90
2389;DHT22;1205;47.984;7.668;2023-11-19T05:15:17;12.00;99.90
2389;DHT22;1205;47.984;7.668;2023-11-19T05:17:42;12.00;99.90
2389;DHT22;1205;47.984;7.668;2023-11-19T05:20:08;12.00;99.90
2389;DHT22;1205;47.984;7.668;2023-11-19T05:22:41;12.10;99.90
2389;DHT22;1205;47.984;7.668;2023-11-19T05:25:07;12.10;99.90
2389;DHT22;1205;47.984;7.668;2023-11-19T05:27:34;12.10;99.90
2389;DHT22;1205;47.984;7.668;2023-11-19T05:30:01;12.10;99.90
2389;DHT22;1205;47.984;7.668;2023-11-19T05:32:27;12.10;99.90
2389;DHT22;1205;47.984;7.668;2023-11-19T05:34:52;12.10;99.90
2389;DHT22;1205;47.984;7.668;2023-11-19T05:37:18;12.10;99.90
2389;DHT22;1205;47.984;7.668;2023-11-19T05:39:45;12.10;99.90
2389;DHT22;1205;47.984;7.668;2023-11-19T05:42:10;12.10;99.90
2389;DHT22;1205;47.984;7.668;2023-11-19T05:44:36;12.20;99.90
2389;DHT22;1205;47.984;7.668;2023-11-19T05:47:03;12.20;99.90
2389;DHT22;1205;47.984;7.668;2023-11-19T05:49:29;12.20;99.90
2389;DHT22;1205;47.984;7.668;2023-11-19T05:51:54;12.20;99.90
2389;DHT22;1205;47.984;7.668;2023-11-19T05:54:21;12.20;99.90
2389;DHT22;1205;47.984;7.668;2023-11-19T05:56:50;12.20;99.90
2389;DHT22;1205;47.984;7.668;2023-11-19T05:59:16;12.30;99.90
2389;DHT22;1205;47.984;7.668;2023-11-19T06:01:43;12.30;99.90
2389;DHT22;1205;47.984;7.668;2023-11-19T06:04:09;12.30;99.90
2389;DHT22;1205;47.984;7.668;2023-11-19T06:06:35;12.30;99.90
2389;DHT22;1205;47.984;7.668;2023-11-19T06:09:01;12.40;99.90
2389;DHT22;1205;47.984;7.668;2023-11-19T06:11:27;12.40;99.90
2389;DHT22;1205;47.984;7.668;2023-11-19T06:13:53;12.40;99.90
2389;DHT22;1205;47.984;7.668;2023-11-19T06:16:19;12.40;99.90
2389;DHT22;1205;47.984;7.668;2023-11-19T06:18:45;12.50;99.90
2389;DHT22;1205;47.984;7.668;2023-11-19T06:21:11;12.50;99.90
2389;DHT22;1205;47.984;7.668;2023-11-19T06:23:37;12.50;99.90
2389;DHT22;1205;47.984;7.668;2023-11-19T06:26:03;12.50;99.90
2389;DHT22;1205;47.984;7.668;2023-11-19T06:28:28;12.50;99.90
2389;DHT22;1205;47.984;7.668;2023-11-19T06:30:54;12.50;99.90
2389;DHT22;1205;47.984;7.668;2023-11-19T06:33:19;12.50;99.90
2389;DHT22;1205;47.984;7.668;2023-11-19T06:35:45;12.50;99.90
2389;DHT22;1205;47.984;7.668;2023-11-19T06:38:11;12.50;99.90
2389;DHT22;1205;47.984;7.668;2023-11-19T06:40:36;12.50;99.90
2389;DHT22;1205;47.984;7.668;2023-11-19T06:43:02;12.50;99.90
2389;DHT22;1205;47.984;7.668;2023-11-19T06:45:29;12.60;99.90
2389;DHT22;1205;47.984;7.668;2023-11-19T06:47:54;12.60;99.90
2389;DHT22;1205;47.984;7.668;2023-11-19T06:50:20;12.60;99.90
2389;DHT22;1205;47.984;7.668;2023-11-19T06:52:46;12.60;99.90
2389;DHT22;1205;47.984;7.668;2023-11-19T06:55:11;12.60;99.90
2389;DHT22;1205;47.984;7.668;2023-11-19T06:57:37;12.60;99.90
2389;DHT22;1205;47.984;7.668;2023-11-19T07:00:03;12.60;99.90
2389;DHT22;1205;47.984;7.668;2023-11-19T07:02:31;12.60;99.90
2389;DHT22;1205;47.984;7.668;2023-11-19T07:04:57;12.60;99.90
2389;DHT22;1205;47.984;7.668;2023-11-19T07:07:23;12.60;99.90
2389;DHT22;1205;47.984;7.668;2023-11-19T07:09:48;12.60;99.90
2389;DHT22;1205;47.984;7.668;2023-11-19T07:12:14;12.60;99.90
2389;DHT22;1205;47.984;7.668;2023-11-19T07:14:40;12.70;99.90
2389;DHT22;1205;47.984;7.668;2023-11-19T07:17:07;12.70;99.90
2389;DHT22;1205;47.984;7.668;2023-11-19T07:19:34;12.70;99.90
2389;DHT22;1205;47.984;7.668;2023-11-19T07:22:01;12.80;99.90
2389;DHT22;1205;47.984;7.668;2023-11-19T07:24:27;12.80;99.90
2389;DHT22;1205;47.984;7.668;2023-11-19T07:26:53;13.00;99.90
2389;DHT22;1205;47.984;7.668;2023-11-19T07:29:19;13.20;99.90
2389;DHT22;1205;47.984;7.668;2023-11-19T07:31:48;13.30;99.90
2389;DHT22;1205;47.984;7.668;2023-11-19T07:34:13;13.40;99.90
2389;DHT22;1205;47.984;7.668;2023-11-19T07:36:39;13.30;99.90
2389;DHT22;1205;47.984;7.668;2023-11-19T07:39:05;13.30;99.90
2389;DHT22;1205;47.984;7.668;2023-11-19T07:41:31;13.30;99.90
2389;DHT22;1205;47.984;7.668;2023-11-19T07:43:57;13.30;99.90
2389;DHT22;1205;47.984;7.668;2023-11-19T07:46:22;13.30;99.90
2389;DHT22;1205;47.984;7.668;2023-11-19T07:48:48;13.30;99.90
2389;DHT22;1205;47.984;7.668;2023-11-19T07:51:14;13.30;99.90
2389;DHT22;1205;47.984;7.668;2023-11-19T07:53:40;13.30;99.90
2389;DHT22;1205;47.984;7.668;2023-11-19T07:56:09;13.30;99.90
2389;DHT22;1205;47.984;7.668;2023-11-19T07:58:35;13.30;99.90
2389;DHT22;1205;47.984;7.668;2023-11-19T08:01:01;13.30;99.90
2389;DHT22;1205;47.984;7.668;2023-11-19T08:03:27;13.30;99.90
2389;DHT22;1205;47.984;7.668;2023-11-19T08:05:55;13.40;99.90
2389;DHT22;1205;47.984;7.668;2023-11-19T08:08:22;13.40;99.90
2389;DHT22;1205;47.984;7.668;2023-11-19T08:10:47;13.40;99.90
2389;DHT22;1205;47.984;7.668;2023-11-19T08:13:13;13.40;99.90
2389;DHT22;1205;47.984;7.668;2023-11-19T08:15:39;13.40;99.90
2389;DHT22;1205;47.984;7.668;2023-11-19T08:18:05;13.50;99.90
2389;DHT22;1205;47.984;7.668;2023-11-19T08:20:32;13.40;99.90
2389;DHT22;1205;47.984;7.668;2023-11-19T08:22:58;13.50;99.90
2389;DHT22;1205;47.984;7.668;2023-11-19T08:25:23;13.50;99.90
2389;DHT22;1205;47.984;7.668;2023-11-19T08:27:49;13.60;99.90
2389;DHT22;1205;47.984;7.668;2023-11-19T08:30:14;13.90;99.90
2389;DHT22;1205;47.984;7.668;2023-11-19T08:32:40;14.10;99.90
2389;DHT22;1205;47.984;7.668;2023-11-19T08:35:06;14.30;99.90
2389;DHT22;1205;47.984;7.668;2023-11-19T08:37:31;14.20;99.90
2389;DHT22;1205;47.984;7.668;2023-11-19T08:39:57;14.40;99.90
2389;DHT22;1205;47.984;7.668;2023-11-19T08:42:23;14.40;99.90
2389;DHT22;1205;47.984;7.668;2023-11-19T08:44:49;14.20;99.90
2389;DHT22;1205;47.984;7.668;2023-11-19T08:47:16;14.10;99.90
2389;DHT22;1205;47.984;7.668;2023-11-19T08:49:43;14.00;99.90
2389;DHT22;1205;47.984;7.668;2023-11-19T08:52:09;14.00;99.90
2389;DHT22;1205;47.984;7.668;2023-11-19T08:54:36;13.90;99.90
2389;DHT22;1205;47.984;7.668;2023-11-19T08:57:02;13.90;99.90
2389;DHT22;1205;47.984;7.668;2023-11-19T08:59:28;13.90;99.90
2389;DHT22;1205;47.984;7.668;2023-11-19T09:01:54;13.90;99.90
2389;DHT22;1205;47.984;7.668;2023-11-19T09:04:20;13.90;99.90
2389;DHT22;1205;47.984;7.668;2023-11-19T09:06:48;14.00;99.90
2389;DHT22;1205;47.984;7.668;2023-11-19T09:09:13;14.00;99.90
2389;DHT22;1205;47.984;7.668;2023-11-19T09:11:39;14.00;99.90
2389;DHT22;1205;47.984;7.668;2023-11-19T09:14:05;14.00;99.90
2389;DHT22;1205;47.984;7.668;2023-11-19T09:16:30;14.10;99.90
2389;DHT22;1205;47.984;7.668;2023-11-19T09:18:56;14.10;99.90
2389;DHT22;1205;47.984;7.668;2023-11-19T09:21:23;14.10;99.90
2389;DHT22;1205;47.984;7.668;2023-11-19T09:23:49;14.00;99.90
2389;DHT22;1205;47.984;7.668;2023-11-19T09:26:15;14.00;99.90
2389;DHT22;1205;47.984;7.668;2023-11-19T09:28:40;14.00;99.90
2389;DHT22;1205;47.984;7.668;2023-11-19T09:31:16;14.00;99.90
2389;DHT22;1205;47.984;7.668;2023-11-19T09:33:42;14.00;99.90
2389;DHT22;1205;47.984;7.668;2023-11-19T09:36:08;14.00;99.90
2389;DHT22;1205;47.984;7.668;2023-11-19T09:38:34;14.00;99.90
2389;DHT22;1205;47.984;7.668;2023-11-19T09:41:04;14.00;99.90
2389;DHT22;1205;47.984;7.668;2023-11-19T09:43:34;14.10;99.90
2389;DHT22;1205;47.984;7.668;2023-11-19T09:46:04;14.10;99.90
2389;DHT22;1205;47.984;7.668;2023-11-19T09:48:35;14.30;99.90
2389;DHT22;1205;47.984;7.668;2023-11-19T09:51:02;14.30;99.90
2389;DHT22;1205;47.984;7.668;2023-11-19T09:53:29;14.30;99.90
2389;DHT22;1205;47.984;7.668;2023-11-19T09:55:55;14.40;99.90
2389;DHT22;1205;47.984;7.668;2023-11-19T09:58:21;14.40;99.90
2389;DHT22;1205;47.984;7.668;2023-11-19T10:00:48;14.50;99.90
2389;DHT22;1205;47.984;7.668;2023-11-19T10:03:14;14.50;99.90
2389;DHT22;1205;47.984;7.668;2023-11-19T10:05:39;14.50;99.90
2389;DHT22;1205;47.984;7.668;2023-11-19T10:08:06;14.50;99.90
2389;DHT22;1205;47.984;7.668;2023-11-19T10:10:33;14.50;99.90
2389;DHT22;1205;47.984;7.668;2023-11-19T10:12:59;14.50;99.90
2389;DHT22;1205;47.984;7.668;2023-11-19T10:15:26;14.60;99.90
2389;DHT22;1205;47.984;7.668;2023-11-19T10:17:58;14.60;99.90
2389;DHT22;1205;47.984;7.668;2023-11-19T10:20:24;14.60;99.90
2389;DHT22;1205;47.984;7.668;2023-11-19T10:22:55;14.50;99.90
2389;DHT22;1205;47.984;7.668;2023-11-19T10:25:25;14.60;99.90
2389;DHT22;1205;47.984;7.668;2023-11-19T10:27:52;14.80;99.90
2389;DHT22;1205;47.984;7.668;2023-11-19T10:30:24;14.80;99.90
2389;DHT22;1205;47.984;7.668;2023-11-19T10:33:10;14.90;99.90
2389;DHT22;1205;47.984;7.668;2023-11-19T10:35:50;14.90;99.90
2389;DHT22;1205;47.984;7.668;2023-11-19T10:38:17;15.00;99.90
2389;DHT22;1205;47.984;7.668;2023-11-19T10:40:43;15.10;99.90
2389;DHT22;1205;47.984;7.668;2023-11-19T10:43:09;15.00;99.90
2389;DHT22;1205;47.984;7.668;2023-11-19T10:45:38;15.00;99.90
2389;DHT22;1205;47.984;7.668;2023-11-19T10:48:05;15.00;99.90
2389;DHT22;1205;47.984;7.668;2023-11-19T10:50:33;15.00;99.90
2389;DHT22;1205;47.984;7.668;2023-11-19T10:53:00;15.00;99.90
2389;DHT22;1205;47.984;7.668;2023-11-19T10:55:32;15.00;99.90
2389;DHT22;1205;47.984;7.668;2023-11-19T11:00:41;15.10;99.90
2389;DHT22;1205;47.984;7.668;2023-11-19T11:03:14;15.30;99.90
2389;DHT22;1205;47.984;7.668;2023-11-19T11:05:40;15.50;99.90
2389;DHT22;1205;47.984;7.668;2023-11-19T11:08:07;15.50;99.90
2389;DHT22;1205;47.984;7.668;2023-11-19T11:10:37;15.70;99.90
2389;DHT22;1205;47.984;7.668;2023-11-19T11:13:05;15.80;99.90
2389;DHT22;1205;47.984;7.668;2023-11-19T11:15:31;15.80;99.90
2389;DHT22;1205;47.984;7.668;2023-11-19T11:18:01;15.80;99.90
2389;DHT22;1205;47.984;7.668;2023-11-19T11:20:31;15.80;99.90
2389;DHT22;1205;47.984;7.668;2023-11-19T11:25:59;15.90;99.90
2389;DHT22;1205;47.984;7.668;2023-11-19T11:28:41;15.90;99.90
2389;DHT22;1205;47.984;7.668;2023-11-19T11:31:22;16.00;99.90
2389;DHT22;1205;47.984;7.668;2023-11-19T11:34:32;16.10;99.90
2389;DHT22;1205;47.984;7.668;2023-11-19T11:39:29;16.00;99.90
2389;DHT22;1205;47.984;7.668;2023-11-19T11:47:25;15.90;99.90
2389;DHT22;1205;47.984;7.668;2023-11-19T11:49:52;15.90;99.90
2389;DHT22;1205;47.984;7.668;2023-11-19T11:52:18;15.80;99.90
2389;DHT22;1205;47.984;7.668;2023-11-19T11:54:44;15.80;99.90
2389;DHT22;1205;47.984;7.668;2023-11-19T11:57:11;15.90;99.90
2389;DHT22;1205;47.984;7.668;2023-11-19T11:59:46;15.80;99.90
2389;DHT22;1205;47.984;7.668;2023-11-19T12:02:14;15.80;99.90
2389;DHT22;1205;47.984;7.668;2023-11-19T12:04:40;15.90;99.90
2389;DHT22;1205;47.984;7.668;2023-11-19T12:07:15;15.90;99.90
2389;DHT22;1205;47.984;7.668;2023-11-19T12:09:49;15.90;99.90
2389;DHT22;1205;47.984;7.668;2023-11-19T12:12:26;15.80;99.90
2389;DHT22;1205;47.984;7.668;2023-11-19T12:20:06;16.00;99.90
2389;DHT22;1205;47.984;7.668;2023-11-19T12:22:38;15.90;99.90
2389;DHT22;1205;47.984;7.668;2023-11-19T12:25:05;15.90;99.90
2389;DHT22;1205;47.984;7.668;2023-11-19T12:27:32;16.00;99.90
2389;DHT22;1205;47.984;7.668;2023-11-19T12:29:59;16.10;99.90
2389;DHT22;1205;47.984;7.668;2023-11-19T12:32:25;16.10;99.90
2389;DHT22;1205;47.984;7.668;2023-11-19T12:34:51;16.10;99.90
2389;DHT22;1205;47.984;7.668;2023-11-19T12:37:17;16.20;99.90
2389;DHT22;1205;47.984;7.668;2023-11-19T12:39:42;16.30;99.90
2389;DHT22;1205;47.984;7.668;2023-11-19T12:42:08;16.40;99.90
2389;DHT22;1205;47.984;7.668;2023-11-19T12:44:34;16.30;99.90
2389;DHT22;1205;47.984;7.668;2023-11-19T12:47:07;16.20;99.90
2389;DHT22;1205;47.984;7.668;2023-11-19T12:49:33;16.30;99.90
2389;DHT22;1205;47.984;7.668;2023-11-19T12:51:59;16.40;99.90
2389;DHT22;1205;47.984;7.668;2023-11-19T12:54:35;16.30;99.90
2389;DHT22;1205;47.984;7.668;2023-11-19T12:57:01;16.30;99.90
2389;DHT22;1205;47.984;7.668;2023-11-19T12:59:28;16.30;99.90
2389;DHT22;1205;47.984;7.668;2023-11-19T13:02:00;16.40;99.90
2389;DHT22;1205;47.984;7.668;2023-11-19T13:04:29;16.40;99.90
2389;DHT22;1205;47.984;7.668;2023-11-19T13:06:59;16.30;99.90
2389;DHT22;1205;47.984;7.668;2023-11-19T13:09:26;16.30;99.90
2389;DHT22;1205;47.984;7.668;2023-11-19T13:11:52;16.10;99.90
2389;DHT22;1205;47.984;7.668;2023-11-19T13:14:18;16.00;99.90
2389;DHT22;1205;47.984;7.668;2023-11-19T13:16:44;15.90;99.90
2389;DHT22;1205;47.984;7.668;2023-11-19T13:19:14;15.90;99.90
2389;DHT22;1205;47.984;7.668;2023-11-19T13:21:41;15.80;99.90
2389;DHT22;1205;47.984;7.668;2023-11-19T13:24:07;15.80;99.90
2389;DHT22;1205;47.984;7.668;2023-11-19T13:26:33;15.70;99.90
2389;DHT22;1205;47.984;7.668;2023-11-19T13:29:00;15.60;99.90
2389;DHT22;1205;47.984;7.668;2023-11-19T13:31:25;15.60;99.90
2389;DHT22;1205;47.984;7.668;2023-11-19T13:33:51;15.50;99.90
2389;DHT22;1205;47.984;7.668;2023-11-19T13:36:16;15.40;99.90
2389;DHT22;1205;47.984;7.668;2023-11-19T13:38:42;15.30;99.90
2389;DHT22;1205;47.984;7.668;2023-11-19T13:41:09;15.30;99.90
2389;DHT22;1205;47.984;7.668;2023-11-19T13:43:37;15.30;99.90
2389;DHT22;1205;47.984;7.668;2023-11-19T13:46:03;15.30;99.90
2389;DHT22;1205;47.984;7.668;2023-11-19T13:48:29;15.30;99.90
2389;DHT22;1205;47.984;7.668;2023-11-19T13:50:57;15.30;99.90
2389;DHT22;1205;47.984;7.668;2023-11-19T13:53:23;15.30;99.90
2389;DHT22;1205;47.984;7.668;2023-11-19T13:55:51;15.20;99.90
2389;DHT22;1205;47.984;7.668;2023-11-19T13:58:18;15.20;99.90
2389;DHT22;1205;47.984;7.668;2023-11-19T14:00:43;15.20;99.90
2389;DHT22;1205;47.984;7.668;2023-11-19T14:03:09;15.20;99.90
2389;DHT22;1205;47.984;7.668;2023-11-19T14:05:38;15.20;99.90
2389;DHT22;1205;47.984;7.668;2023-11-19T14:08:05;15.20;99.90
2389;DHT22;1205;47.984;7.668;2023-11-19T14:10:39;15.20;99.90
2389;DHT22;1205;47.984;7.668;2023-11-19T14:13:08;15.20;99.90
2389;DHT22;1205;47.984;7.668;2023-11-19T14:15:34;15.20;99.90
2389;DHT22;1205;47.984;7.668;2023-11-19T14:18:00;15.20;99.90
2389;DHT22;1205;47.984;7.668;2023-11-19T14:20:26;15.20;99.90
2389;DHT22;1205;47.984;7.668;2023-11-19T14:22:52;15.20;99.90
2389;DHT22;1205;47.984;7.668;2023-11-19T14:25:18;15.10;99.90
2389;DHT22;1205;47.984;7.668;2023-11-19T14:27:44;15.10;99.90
2389;DHT22;1205;47.984;7.668;2023-11-19T14:30:12;15.10;99.90
2389;DHT22;1205;47.984;7.668;2023-11-19T14:32:42;15.00;99.90
2389;DHT22;1205;47.984;7.668;2023-11-19T14:35:09;15.00;99.90
2389;DHT22;1205;47.984;7.668;2023-11-19T14:37:35;14.90;99.90
2389;DHT22;1205;47.984;7.668;2023-11-19T14:40:01;14.90;99.90
2389;DHT22;1205;47.984;7.668;2023-11-19T14:42:29;14.90;99.90
2389;DHT22;1205;47.984;7.668;2023-11-19T14:44:54;14.90;99.90
2389;DHT22;1205;47.984;7.668;2023-11-19T14:47:24;14.90;99.90
2389;DHT22;1205;47.984;7.668;2023-11-19T14:49:49;14.90;99.90
2389;DHT22;1205;47.984;7.668;2023-11-19T14:52:15;14.80;99.90
2389;DHT22;1205;47.984;7.668;2023-11-19T14:54:41;14.80;99.90
2389;DHT22;1205;47.984;7.668;2023-11-19T14:57:07;14.80;99.90
2389;DHT22;1205;47.984;7.668;2023-11-19T14:59:34;14.70;99.90
2389;DHT22;1205;47.984;7.668;2023-11-19T15:02:00;14.70;99.90
2389;DHT22;1205;47.984;7.668;2023-11-19T15:04:26;14.70;99.90
2389;DHT22;1205;47.984;7.668;2023-11-19T15:06:52;14.60;99.90
2389;DHT22;1205;47.984;7.668;2023-11-19T15:09:18;14.60;99.90
2389;DHT22;1205;47.984;7.668;2023-11-19T15:11:44;14.60;99.90
2389;DHT22;1205;47.984;7.668;2023-11-19T15:14:14;14.60;99.90
2389;DHT22;1205;47.984;7.668;2023-11-19T15:16:42;14.50;99.90
2389;DHT22;1205;47.984;7.668;2023-11-19T15:19:08;14.40;99.90
2389;DHT22;1205;47.984;7.668;2023-11-19T15:21:34;14.40;99.90
2389;DHT22;1205;47.984;7.668;2023-11-19T15:24:00;14.40;99.90
2389;DHT22;1205;47.984;7.668;2023-11-19T15:26:26;14.30;99.90
2389;DHT22;1205;47.984;7.668;2023-11-19T15:28:51;14.30;99.90
2389;DHT22;1205;47.984;7.668;2023-11-19T15:31:22;14.30;99.90
2389;DHT22;1205;47.984;7.668;2023-11-19T15:33:47;14.20;99.90
2389;DHT22;1205;47.984;7.668;2023-11-19T15:36:13;14.10;99.90
2389;DHT22;1205;47.984;7.668;2023-11-19T15:38:39;14.10;99.90
2389;DHT22;1205;47.984;7.668;2023-11-19T15:41:05;14.10;99.90
2389;DHT22;1205;47.984;7.668;2023-11-19T15:43:33;14.10;99.90
2389;DHT22;1205;47.984;7.668;2023-11-19T15:45:58;14.00;99.90
2389;DHT22;1205;47.984;7.668;2023-11-19T15:48:24;13.90;99.90
2389;DHT22;1205;47.984;7.668;2023-11-19T15:50:51;13.90;99.90
2389;DHT22;1205;47.984;7.668;2023-11-19T15:53:17;14.20;99.90
2389;DHT22;1205;47.984;7.668;2023-11-19T15:55:44;14.50;99.90
2389;DHT22;1205;47.984;7.668;2023-11-19T15:58:11;14.50;99.90
2389;DHT22;1205;47.984;7.668;2023-11-19T16:00:36;14.60;99.90
2389;DHT22;1205;47.984;7.668;2023-11-19T16:03:02;14.70;99.90
2389;DHT22;1205;47.984;7.668;2023-11-19T16:05:28;14.60;99.90
2389;DHT22;1205;47.984;7.668;2023-11-19T16:07:53;14.30;99.90
2389;DHT22;1205;47.984;7.668;2023-11-19T16:10:19;14.10;99.90
2389;DHT22;1205;47.984;7.668;2023-11-19T16:12:45;14.00;99.90
2389;DHT22;1205;47.984;7.668;2023-11-19T16:15:11;13.80;99.90
2389;DHT22;1205;47.984;7.668;2023-11-19T16:17:38;13.80;99.90
2389;DHT22;1205;47.984;7.668;2023-11-19T16:20:04;13.70;99.90